Terminal Aerodrome Forecast
Issued by NWS Cleveland, OH

Home | Current Version | Previous Version | Graphics & Text | Print | Product List | Glossary On
Versions: 1 2 3 4 5 6 7 8 9 10 11 12 13 14 15 16 17 18 19 20 21 22
861
FTUS41 KCLE 301736
TAFTOL
TAF
KTOL 301736Z 3018/3118 02008KT P6SM VCTS BKN025CB
     FM302000 VRB03KT P6SM OVC035
      TEMPO 3020/3024 3SM TSRA OVC015CB
     FM310200 VRB03KT P6SM SCT250
     FM310800 28004KT 3SM BR OVC015=

USA.gov is the U.S. government's official web portal to all federal, state and local government web resources and services.